Time;durP1;ratioP1;P1;durP2;ratioP2;P2;SDS_P1;SDS_P2;PMS_P1;PMS_P2;Temp;Humidity;BMP_temperature;BMP_pressure;BME280_temperature;BME280_humidity;BME280_pressure;Samples;Min_cycle;Max_cycle;Signal;HPM_P1;HPM_P2
2023/08/02 00:01:07;;;;;;;56.80;2.13;;;;;;;;;;5072849;28;20443;-69
2023/08/02 00:03:34;;;;;;;60.20;4.50;;;;;;;;;;5072914;28;20469;-68
2023/08/02 00:06:01;;;;;;;56.37;2.00;;;;;;;;;;5073041;28;20957;-69
2023/08/02 00:08:29;;;;;;;57.00;2.30;;;;;;;;;;5072582;28;21037;-68
2023/08/02 00:10:56;;;;;;;56.47;2.10;;;;;;;;;;5072870;28;20445;-67
2023/08/02 00:13:24;;;;;;;56.77;2.30;;;;;;;;;;5073298;28;20463;-69
2023/08/02 00:15:53;;;;;;;56.60;2.10;;;;;;;;;;5072565;28;20448;-69
2023/08/02 00:18:20;;;;;;;56.53;2.20;;;;;;;;;;5072810;28;20439;-69
2023/08/02 00:20:48;;;;;;;56.53;2.37;;;;;;;;;;5072689;28;20443;-69
2023/08/02 00:23:15;;;;;;;56.80;2.30;;;;;;;;;;5072317;28;20467;-68
2023/08/02 00:25:43;;;;;;;56.60;2.20;;;;;;;;;;5072730;28;20458;-69
2023/08/02 00:28:10;;;;;;;56.70;2.20;;;;;;;;;;5072579;28;20851;-69
2023/08/02 00:30:44;;;;;;;56.87;2.43;;;;;;;;;;5072503;28;20447;-69
2023/08/02 00:33:13;;;;;;;56.67;2.20;;;;;;;;;;5072594;28;20459;-69
2023/08/02 00:35:44;;;;;;;56.50;2.10;;;;;;;;;;5072504;28;20470;-69
2023/08/02 00:38:11;;;;;;;56.57;2.30;;;;;;;;;;5072954;28;20501;-69
2023/08/02 00:40:38;;;;;;;56.13;2.00;;;;;;;;;;5072175;28;20444;-69
2023/08/02 00:43:05;;;;;;;56.30;1.97;;;;;;;;;;5072434;28;20979;-69
2023/08/02 00:45:33;;;;;;;56.37;2.00;;;;;;;;;;5072390;28;20825;-69
2023/08/02 00:48:00;;;;;;;56.57;2.20;;;;;;;;;;5072673;28;20837;-68
2023/08/02 00:50:29;;;;;;;56.43;2.10;;;;;;;;;;5071979;28;20439;-69
2023/08/02 00:52:57;;;;;;;56.50;2.00;;;;;;;;;;5072057;28;20471;-69
2023/08/02 00:55:24;;;;;;;56.53;2.20;;;;;;;;;;5072004;28;20919;-69
2023/08/02 00:57:51;;;;;;;56.33;2.10;;;;;;;;;;5072393;28;20439;-69
2023/08/02 01:00:18;;;;;;;56.47;2.30;;;;;;;;;;5072236;28;20538;-69
2023/08/02 01:02:45;;;;;;;56.17;2.00;;;;;;;;;;5072255;28;20499;-69
2023/08/02 01:05:13;;;;;;;56.30;2.00;;;;;;;;;;5072519;28;20455;-69
2023/08/02 01:07:45;;;;;;;56.50;2.10;;;;;;;;;;5072327;28;20458;-69
2023/08/02 01:10:14;;;;;;;57.20;2.30;;;;;;;;;;5071699;28;20486;-69
2023/08/02 01:12:43;;;;;;;56.30;2.10;;;;;;;;;;5072037;28;20467;-69
2023/08/02 01:15:11;;;;;;;56.60;2.00;;;;;;;;;;5072383;28;20962;-68
2023/08/02 01:17:39;;;;;;;56.37;2.00;;;;;;;;;;5071878;28;20446;-68
2023/08/02 01:20:08;;;;;;;56.37;2.17;;;;;;;;;;5071928;28;20442;-69
2023/08/02 01:22:35;;;;;;;56.60;2.37;;;;;;;;;;5071882;28;20467;-69
2023/08/02 01:25:03;;;;;;;56.37;2.10;;;;;;;;;;5071699;28;20454;-69
2023/08/02 01:27:41;;;;;;;56.57;2.03;;;;;;;;;;5072354;28;20977;-69
2023/08/02 01:30:12;;;;;;;56.47;2.30;;;;;;;;;;5072112;28;20508;-69
2023/08/02 01:32:39;;;;;;;56.60;2.20;;;;;;;;;;5071718;28;20471;-69
2023/08/02 01:35:09;;;;;;;56.33;2.30;;;;;;;;;;5073181;28;20449;-69
2023/08/02 01:37:36;;;;;;;56.50;2.30;;;;;;;;;;5076238;28;20439;-69
2023/08/02 01:40:04;;;;;;;56.37;2.13;;;;;;;;;;5075602;28;20803;-69
2023/08/02 01:42:31;;;;;;;56.50;2.10;;;;;;;;;;5073954;28;20498;-69
2023/08/02 01:44:58;;;;;;;56.30;2.20;;;;;;;;;;5075967;28;20450;-69
2023/08/02 01:47:25;;;;;;;56.57;2.10;;;;;;;;;;5075846;28;20458;-68
2023/08/02 01:49:52;;;;;;;56.60;2.40;;;;;;;;;;5075755;28;20489;-69
2023/08/02 01:52:21;;;;;;;56.53;2.13;;;;;;;;;;5075261;28;20468;-69
2023/08/02 01:54:48;;;;;;;56.33;2.10;;;;;;;;;;5075810;28;20465;-69
2023/08/02 01:57:15;;;;;;;56.70;2.10;;;;;;;;;;5075762;28;20448;-69
2023/08/02 01:59:42;;;;;;;56.77;2.23;;;;;;;;;;5075654;28;20448;-69
2023/08/02 02:02:09;;;;;;;56.60;2.20;;;;;;;;;;5075386;28;20451;-69
2023/08/02 02:04:36;;;;;;;56.60;2.00;;;;;;;;;;5075304;28;20942;-70
2023/08/02 02:07:04;;;;;;;56.33;2.00;;;;;;;;;;5075300;28;20443;-69
2023/08/02 02:09:32;;;;;;;56.60;2.20;;;;;;;;;;5075386;28;21010;-69
2023/08/02 02:11:59;;;;;;;56.50;2.00;;;;;;;;;;5074977;28;20447;-69
2023/08/02 02:14:26;;;;;;;58.13;2.80;;;;;;;;;;5074998;28;20822;-69
2023/08/02 02:16:53;;;;;;;56.47;2.00;;;;;;;;;;5075064;28;20439;-69
2023/08/02 02:19:20;;;;;;;56.80;2.10;;;;;;;;;;5075422;28;21044;-68
2023/08/02 02:21:48;;;;;;;56.80;2.20;;;;;;;;;;5075147;28;20450;-69
2023/08/02 02:24:15;;;;;;;56.53;2.40;;;;;;;;;;5074937;28;20448;-69
2023/08/02 02:29:46;;;;;;;56.50;2.30;;;;;;;;;;5074451;28;20981;-68
2023/08/02 02:32:14;;;;;;;56.57;2.13;;;;;;;;;;5074770;28;20818;-69
2023/08/02 02:34:41;;;;;;;56.47;2.00;;;;;;;;;;5075058;28;20557;-68
2023/08/02 02:37:08;;;;;;;56.77;2.33;;;;;;;;;;5074741;28;20447;-69
2023/08/02 02:39:35;;;;;;;56.73;2.33;;;;;;;;;;5073875;28;20519;-68
2023/08/02 02:42:02;;;;;;;56.47;2.30;;;;;;;;;;5074298;28;20446;-69
2023/08/02 02:44:41;;;;;;;56.37;2.10;;;;;;;;;;5074496;28;20447;-69
2023/08/02 02:47:09;;;;;;;56.57;2.10;;;;;;;;;;5074397;28;20504;-69
2023/08/02 02:49:36;;;;;;;56.43;2.17;;;;;;;;;;5074779;28;20498;-69
2023/08/02 02:52:03;;;;;;;56.60;2.40;;;;;;;;;;5074354;28;20450;-69
2023/08/02 02:54:30;;;;;;;56.70;2.60;;;;;;;;;;5074572;28;20470;-69
2023/08/02 02:56:57;;;;;;;56.80;2.33;;;;;;;;;;5074272;28;20451;-69
2023/08/02 02:59:24;;;;;;;56.40;2.10;;;;;;;;;;5074433;28;20951;-69
2023/08/02 03:01:51;;;;;;;56.87;2.40;;;;;;;;;;5074438;28;20455;-68
2023/08/02 03:04:20;;;;;;;56.47;2.07;;;;;;;;;;5074580;28;20467;-69
2023/08/02 03:06:47;;;;;;;56.27;2.03;;;;;;;;;;5074492;28;20457;-69
2023/08/02 03:09:14;;;;;;;56.43;2.20;;;;;;;;;;5074172;28;20491;-69
2023/08/02 03:11:41;;;;;;;56.47;2.30;;;;;;;;;;5075031;28;20447;-69
2023/08/02 03:14:08;;;;;;;56.37;2.00;;;;;;;;;;5074427;28;20467;-69
2023/08/02 03:16:35;;;;;;;56.40;2.20;;;;;;;;;;5074529;28;20447;-69
2023/08/02 03:19:02;;;;;;;56.37;2.50;;;;;;;;;;5074403;28;20450;-69
2023/08/02 03:21:31;;;;;;;56.67;2.33;;;;;;;;;;5073595;28;20514;-69
2023/08/02 03:23:58;;;;;;;57.20;2.23;;;;;;;;;;5074222;28;20476;-69
2023/08/02 03:26:25;;;;;;;56.67;2.30;;;;;;;;;;5073772;28;20451;-69
2023/08/02 03:28:52;;;;;;;56.70;2.10;;;;;;;;;;5074250;28;20890;-68
2023/08/02 03:31:19;;;;;;;56.47;2.03;;;;;;;;;;5073784;28;20447;-69
2023/08/02 03:33:46;;;;;;;56.60;2.20;;;;;;;;;;5074303;28;20996;-68
2023/08/02 03:36:13;;;;;;;56.57;2.20;;;;;;;;;;5073976;28;20448;-69
2023/08/02 03:38:42;;;;;;;56.40;2.30;;;;;;;;;;5073859;28;20529;-68
2023/08/02 03:41:09;;;;;;;56.27;1.97;;;;;;;;;;5073320;28;20996;-69
2023/08/02 03:43:36;;;;;;;56.40;2.47;;;;;;;;;;5073729;28;20467;-69
2023/08/02 03:46:04;;;;;;;56.23;1.90;;;;;;;;;;5073520;28;20951;-69
2023/08/02 03:48:31;;;;;;;56.60;2.60;;;;;;;;;;5073077;28;20965;-70
2023/08/02 03:50:59;;;;;;;56.47;2.07;;;;;;;;;;5073273;28;20501;-69
2023/08/02 03:53:27;;;;;;;56.60;2.20;;;;;;;;;;5073364;28;20467;-69
2023/08/02 03:55:55;;;;;;;56.27;1.93;;;;;;;;;;5073321;28;20459;-69
2023/08/02 03:58:22;;;;;;;56.27;2.30;;;;;;;;;;5072458;28;20448;-69
2023/08/02 04:00:50;;;;;;;56.87;2.80;;;;;;;;;;5073091;28;20435;-69
2023/08/02 04:03:17;;;;;;;56.13;1.90;;;;;;;;;;5073455;28;20498;-69
2023/08/02 04:05:45;;;;;;;56.20;1.90;;;;;;;;;;5073148;28;20439;-69
2023/08/02 04:08:12;;;;;;;56.37;1.80;;;;;;;;;;5073109;28;20947;-69
2023/08/02 04:10:39;;;;;;;56.40;2.20;;;;;;;;;;5072794;28;20858;-69
2023/08/02 04:13:08;;;;;;;56.40;2.00;;;;;;;;;;5073389;28;20486;-69
2023/08/02 04:15:35;;;;;;;56.23;1.90;;;;;;;;;;5073547;28;20554;-69
2023/08/02 04:18:02;;;;;;;56.27;1.93;;;;;;;;;;5073278;28;20449;-69
2023/08/02 04:20:29;;;;;;;56.50;2.00;;;;;;;;;;5072941;28;20439;-69
2023/08/02 04:22:56;;;;;;;56.33;1.97;;;;;;;;;;5073173;28;20459;-69
2023/08/02 04:25:23;;;;;;;56.40;2.00;;;;;;;;;;5073430;28;20477;-69
2023/08/02 04:27:50;;;;;;;56.13;1.93;;;;;;;;;;5073042;28;20500;-69
2023/08/02 04:30:19;;;;;;;56.47;2.50;;;;;;;;;;5072342;28;20486;-69
2023/08/02 04:32:46;;;;;;;56.17;2.00;;;;;;;;;;5072308;28;20463;-69
2023/08/02 04:35:13;;;;;;;56.33;2.03;;;;;;;;;;5072020;28;20443;-69
2023/08/02 04:37:40;;;;;;;56.33;1.93;;;;;;;;;;5072417;28;20830;-68
2023/08/02 04:40:08;;;;;;;56.20;2.10;;;;;;;;;;5072076;28;20447;-69
2023/08/02 04:42:35;;;;;;;56.27;2.10;;;;;;;;;;5071445;28;20459;-70
2023/08/02 04:45:02;;;;;;;57.83;3.30;;;;;;;;;;5071430;28;20446;-70
2023/08/02 04:47:30;;;;;;;56.07;1.90;;;;;;;;;;5071194;28;21006;-70
2023/08/02 04:49:58;;;;;;;56.27;2.20;;;;;;;;;;5071504;28;20483;-70
2023/08/02 04:52:25;;;;;;;63.23;2.50;;;;;;;;;;5071076;28;20550;-70
2023/08/02 04:54:52;;;;;;;56.40;1.90;;;;;;;;;;5071229;28;20462;-70
2023/08/02 04:57:19;;;;;;;57.00;2.17;;;;;;;;;;5071235;28;20452;-71
2023/08/02 04:59:47;;;;;;;56.50;1.90;;;;;;;;;;5071152;28;20447;-72
2023/08/02 05:02:14;;;;;;;56.17;2.00;;;;;;;;;;5070718;28;20453;-71
2023/08/02 05:04:42;;;;;;;56.60;2.30;;;;;;;;;;5071378;28;20455;-71
2023/08/02 05:07:09;;;;;;;56.50;2.07;;;;;;;;;;5071012;28;20447;-70
2023/08/02 05:09:36;;;;;;;56.47;2.03;;;;;;;;;;5072391;28;20877;-71
2023/08/02 05:12:04;;;;;;;56.40;2.00;;;;;;;;;;5077332;28;20450;-71
2023/08/02 05:14:31;;;;;;;56.67;2.30;;;;;;;;;;5077572;28;20969;-72
2023/08/02 05:16:58;;;;;;;56.57;2.20;;;;;;;;;;5077511;28;20455;-71
2023/08/02 05:19:25;;;;;;;56.50;2.40;;;;;;;;;;5077857;28;20827;-71
2023/08/02 05:21:53;;;;;;;56.60;2.20;;;;;;;;;;5077517;28;20458;-71
2023/08/02 05:24:20;;;;;;;56.67;2.30;;;;;;;;;;5077732;28;20443;-71
2023/08/02 05:26:48;;;;;;;56.33;1.93;;;;;;;;;;5077627;28;20449;-71
2023/08/02 05:29:15;;;;;;;56.60;2.33;;;;;;;;;;5077542;28;20810;-70
2023/08/02 05:31:42;;;;;;;56.57;2.23;;;;;;;;;;5077412;28;20491;-71
2023/08/02 05:34:09;;;;;;;56.67;2.50;;;;;;;;;;5077696;28;20502;-71
2023/08/02 05:36:36;;;;;;;56.50;2.40;;;;;;;;;;5077447;28;20966;-70
2023/08/02 05:39:05;;;;;;;56.63;2.33;;;;;;;;;;5077703;28;20478;-70
2023/08/02 05:41:32;;;;;;;56.37;2.37;;;;;;;;;;5077314;28;20815;-71
2023/08/02 05:43:59;;;;;;;56.57;2.10;;;;;;;;;;5077269;28;20477;-71
2023/08/02 05:46:26;;;;;;;56.60;2.57;;;;;;;;;;5077567;28;20453;-71
2023/08/02 05:48:53;;;;;;;56.57;2.30;;;;;;;;;;5077562;28;20439;-71
2023/08/02 05:51:21;;;;;;;56.60;2.20;;;;;;;;;;5077192;28;20490;-71
2023/08/02 05:53:48;;;;;;;56.30;2.20;;;;;;;;;;5077586;28;20474;-71
2023/08/02 05:56:17;;;;;;;56.90;2.23;;;;;;;;;;5077325;28;20435;-71
2023/08/02 05:58:44;;;;;;;56.77;2.57;;;;;;;;;;5077529;28;20446;-71
2023/08/02 06:01:11;;;;;;;56.57;2.37;;;;;;;;;;5077192;28;20439;-70
2023/08/02 06:03:38;;;;;;;56.50;2.30;;;;;;;;;;5077349;28;20473;-70
2023/08/02 06:06:05;;;;;;;56.43;2.40;;;;;;;;;;5077190;28;20965;-70
2023/08/02 06:08:33;;;;;;;56.70;2.40;;;;;;;;;;5077328;28;20469;-70
2023/08/02 06:11:01;;;;;;;56.60;2.20;;;;;;;;;;5077185;28;20479;-69
2023/08/02 06:13:30;;;;;;;56.47;2.20;;;;;;;;;;5077294;28;20463;-70
2023/08/02 06:15:57;;;;;;;56.40;2.20;;;;;;;;;;5077135;28;20978;-70
2023/08/02 06:18:24;;;;;;;56.17;2.00;;;;;;;;;;5077329;28;20443;-70
2023/08/02 06:20:51;;;;;;;56.40;2.50;;;;;;;;;;5076309;28;20439;-70
2023/08/02 06:23:18;;;;;;;56.90;2.83;;;;;;;;;;5073204;28;20843;-70
2023/08/02 06:25:45;;;;;;;56.57;2.20;;;;;;;;;;5073442;28;20766;-70
2023/08/02 06:28:12;;;;;;;56.40;2.30;;;;;;;;;;5074075;28;20443;-69
2023/08/02 06:30:41;;;;;;;56.47;2.20;;;;;;;;;;5073555;28;20536;-70
2023/08/02 06:33:08;;;;;;;56.50;2.30;;;;;;;;;;5073751;28;20838;-69
2023/08/02 06:35:35;;;;;;;56.80;2.40;;;;;;;;;;5073744;28;20454;-69
2023/08/02 06:38:02;;;;;;;56.40;2.30;;;;;;;;;;5073663;28;20435;-69
2023/08/02 06:40:29;;;;;;;56.30;2.10;;;;;;;;;;5073291;28;20439;-69
2023/08/02 06:42:56;;;;;;;56.47;1.90;;;;;;;;;;5073589;28;20839;-69
2023/08/02 06:45:23;;;;;;;57.17;2.63;;;;;;;;;;5073623;28;20447;-69
2023/08/02 06:47:52;;;;;;;56.60;2.53;;;;;;;;;;5073569;28;20451;-69
2023/08/02 06:50:19;;;;;;;56.50;2.30;;;;;;;;;;5073095;28;21002;-69
2023/08/02 06:52:46;;;;;;;57.00;2.40;;;;;;;;;;5073302;28;21010;-69
2023/08/02 06:55:13;;;;;;;56.53;2.23;;;;;;;;;;5073267;28;20458;-69
2023/08/02 06:57:40;;;;;;;56.17;2.40;;;;;;;;;;5073576;28;20444;-70
2023/08/02 07:00:08;;;;;;;56.63;2.27;;;;;;;;;;5073428;28;20435;-70
2023/08/02 07:02:35;;;;;;;56.67;2.20;;;;;;;;;;5073218;28;20471;-69
2023/08/02 07:05:03;;;;;;;56.23;2.33;;;;;;;;;;5073647;28;20439;-69
2023/08/02 07:07:30;;;;;;;56.47;2.30;;;;;;;;;;5073356;28;20449;-69
2023/08/02 07:09:58;;;;;;;56.30;2.30;;;;;;;;;;5073234;28;20439;-69
2023/08/02 07:12:25;;;;;;;56.47;2.30;;;;;;;;;;5072780;28;20472;-70
2023/08/02 07:14:52;;;;;;;58.50;2.80;;;;;;;;;;5073029;28;20927;-69
2023/08/02 07:17:19;;;;;;;56.47;2.30;;;;;;;;;;5073382;28;20490;-69
2023/08/02 07:19:46;;;;;;;56.70;2.93;;;;;;;;;;5072945;28;20470;-69
2023/08/02 07:22:17;;;;;;;56.70;2.20;;;;;;;;;;5072780;28;20436;-69
2023/08/02 07:24:44;;;;;;;56.50;2.60;;;;;;;;;;5072990;28;20465;-69
2023/08/02 07:27:11;;;;;;;56.30;2.40;;;;;;;;;;5072746;28;20486;-69
2023/08/02 07:29:38;;;;;;;56.60;2.60;;;;;;;;;;5072780;28;20450;-70
2023/08/02 07:32:06;;;;;;;57.20;2.93;;;;;;;;;;5072136;28;20490;-68
2023/08/02 07:34:34;;;;;;;56.70;2.40;;;;;;;;;;5072703;28;20462;-69
2023/08/02 07:37:01;;;;;;;56.37;2.60;;;;;;;;;;5072665;28;20501;-69
2023/08/02 07:39:30;;;;;;;56.17;2.10;;;;;;;;;;5072437;28;20447;-69
2023/08/02 07:41:57;;;;;;;56.40;2.30;;;;;;;;;;5072143;28;20447;-69
2023/08/02 07:44:24;;;;;;;56.70;2.70;;;;;;;;;;5072445;28;20451;-69
2023/08/02 07:46:51;;;;;;;56.40;2.10;;;;;;;;;;5072161;28;20443;-70
2023/08/02 07:49:18;;;;;;;56.60;2.50;;;;;;;;;;5072499;28;20443;-69
2023/08/02 07:51:45;;;;;;;56.43;2.40;;;;;;;;;;5071973;28;21026;-69
2023/08/02 07:54:12;;;;;;;56.37;2.50;;;;;;;;;;5072044;28;20471;-70
2023/08/02 07:56:40;;;;;;;56.57;2.30;;;;;;;;;;5071990;28;20935;-70
2023/08/02 07:59:07;;;;;;;57.10;2.43;;;;;;;;;;5072066;28;20440;-69
2023/08/02 08:01:35;;;;;;;56.40;2.53;;;;;;;;;;5072046;28;20446;-70
2023/08/02 08:04:02;;;;;;;57.57;3.07;;;;;;;;;;5072043;28;20983;-70
2023/08/02 08:06:29;;;;;;;56.30;2.20;;;;;;;;;;5072047;28;20439;-70
2023/08/02 08:08:56;;;;;;;56.60;3.00;;;;;;;;;;5072087;28;20447;-70
2023/08/02 08:11:23;;;;;;;56.47;2.70;;;;;;;;;;5071520;28;20483;-70
2023/08/02 08:13:52;;;;;;;56.57;2.30;;;;;;;;;;5071685;28;20465;-70
2023/08/02 08:16:19;;;;;;;56.90;2.40;;;;;;;;;;5071702;28;20940;-69
2023/08/02 08:18:46;;;;;;;57.10;3.20;;;;;;;;;;5071933;28;20447;-69
2023/08/02 08:21:13;;;;;;;56.13;2.20;;;;;;;;;;5071597;28;20518;-69
2023/08/02 08:23:41;;;;;;;56.90;3.00;;;;;;;;;;5071725;28;20455;-70
2023/08/02 08:26:11;;;;;;;56.40;2.37;;;;;;;;;;5071613;28;20453;-70
2023/08/02 08:28:38;;;;;;;56.40;2.67;;;;;;;;;;5071867;28;20862;-70
2023/08/02 08:31:07;;;;;;;56.47;2.20;;;;;;;;;;5071406;28;20828;-69
2023/08/02 08:33:34;;;;;;;57.00;2.97;;;;;;;;;;5071766;28;20460;-70
2023/08/02 08:36:01;;;;;;;56.37;2.17;;;;;;;;;;5071385;28;20534;-70
2023/08/02 08:38:28;;;;;;;56.50;2.50;;;;;;;;;;5071379;28;20970;-70
2023/08/02 08:40:56;;;;;;;56.50;2.60;;;;;;;;;;5071057;28;20443;-70
2023/08/02 08:43:26;;;;;;;56.80;2.90;;;;;;;;;;5071513;28;20464;-70
2023/08/02 08:45:54;;;;;;;56.53;2.30;;;;;;;;;;5070979;28;20459;-70
2023/08/02 08:48:23;;;;;;;56.27;2.33;;;;;;;;;;5071456;28;20866;-70
2023/08/02 08:50:51;;;;;;;56.40;2.60;;;;;;;;;;5071027;28;20484;-69
2023/08/02 08:53:29;;;;;;;56.37;2.47;;;;;;;;;;5071189;28;20846;-69
2023/08/02 08:55:56;;;;;;;56.50;2.50;;;;;;;;;;5071137;28;20435;-69
2023/08/02 08:58:23;;;;;;;56.57;2.70;;;;;;;;;;5071362;28;20440;-69
2023/08/02 09:00:50;;;;;;;56.27;1.93;;;;;;;;;;5071106;28;20462;-70
2023/08/02 09:03:18;;;;;;;57.10;2.53;;;;;;;;;;5071213;28;20486;-70
2023/08/02 09:05:46;;;;;;;56.40;2.53;;;;;;;;;;5071072;28;20522;-70
2023/08/02 09:08:13;;;;;;;56.13;2.20;;;;;;;;;;5071449;28;20446;-70
2023/08/02 09:10:40;;;;;;;56.27;2.13;;;;;;;;;;5070780;28;20443;-69
2023/08/02 09:13:08;;;;;;;56.47;2.17;;;;;;;;;;5071419;28;20466;-70
2023/08/02 09:15:35;;;;;;;56.40;2.43;;;;;;;;;;5071203;28;20445;-70
2023/08/02 09:18:02;;;;;;;56.20;2.30;;;;;;;;;;5071211;28;20450;-70
2023/08/02 09:20:29;;;;;;;56.27;2.20;;;;;;;;;;5070768;28;20453;-69
2023/08/02 09:22:57;;;;;;;57.07;2.20;;;;;;;;;;5070977;28;20459;-70
2023/08/02 09:25:25;;;;;;;56.57;2.97;;;;;;;;;;5071101;28;20444;-70
2023/08/02 09:27:53;;;;;;;56.37;2.20;;;;;;;;;;5071351;28;20443;-69
2023/08/02 09:30:24;;;;;;;56.50;2.40;;;;;;;;;;5070777;28;20454;-69
2023/08/02 09:33:01;;;;;;;56.97;2.87;;;;;;;;;;5070660;28;20494;-68
2023/08/02 09:35:28;;;;;;;56.57;2.23;;;;;;;;;;5071100;28;20447;-69
2023/08/02 09:37:55;;;;;;;56.60;2.40;;;;;;;;;;5070965;28;20446;-68
2023/08/02 09:40:35;;;;;;;56.70;2.83;;;;;;;;;;5070538;28;20969;-69
2023/08/02 09:43:03;;;;;;;56.37;2.20;;;;;;;;;;5070848;28;20459;-69
2023/08/02 09:45:35;;;;;;;56.30;2.40;;;;;;;;;;5070633;28;20955;-69
2023/08/02 09:48:02;;;;;;;56.17;2.10;;;;;;;;;;5070918;28;20816;-68
2023/08/02 09:50:30;;;;;;;56.23;2.30;;;;;;;;;;5070620;28;20479;-69
2023/08/02 09:52:57;;;;;;;56.20;2.20;;;;;;;;;;5070643;28;20491;-69
2023/08/02 09:55:24;;;;;;;56.17;2.00;;;;;;;;;;5070680;28;20464;-68
2023/08/02 09:57:53;;;;;;;56.10;2.10;;;;;;;;;;5073145;28;20445;-69
2023/08/02 10:00:20;;;;;;;56.50;2.50;;;;;;;;;;5074529;28;21027;-69
2023/08/02 10:02:48;;;;;;;56.40;2.30;;;;;;;;;;5074351;28;20464;-69
2023/08/02 10:05:17;;;;;;;56.10;2.10;;;;;;;;;;5074365;28;20928;-69
2023/08/02 10:07:46;;;;;;;56.60;2.50;;;;;;;;;;5074244;28;20943;-68
2023/08/02 10:10:14;;;;;;;56.90;2.70;;;;;;;;;;5074105;28;20497;-69
2023/08/02 10:12:42;;;;;;;56.27;2.20;;;;;;;;;;5073897;28;20499;-69
2023/08/02 10:15:10;;;;;;;56.60;2.10;;;;;;;;;;5074498;28;20466;-69
2023/08/02 10:17:38;;;;;;;56.40;2.43;;;;;;;;;;5073973;28;20936;-69
2023/08/02 10:20:05;;;;;;;56.30;2.20;;;;;;;;;;5073956;28;20455;-69
2023/08/02 10:22:33;;;;;;;57.37;3.40;;;;;;;;;;5073770;28;20469;-68
2023/08/02 10:25:01;;;;;;;56.40;2.07;;;;;;;;;;5073958;28;20443;-69
2023/08/02 10:27:28;;;;;;;56.50;2.30;;;;;;;;;;5074173;28;20469;-69
2023/08/02 10:29:56;;;;;;;56.20;2.00;;;;;;;;;;5074078;28;20448;-69
2023/08/02 10:32:24;;;;;;;56.37;2.20;;;;;;;;;;5073632;28;20492;-70
2023/08/02 10:34:51;;;;;;;56.50;2.37;;;;;;;;;;5073706;28;20935;-70
2023/08/02 10:37:19;;;;;;;56.10;2.00;;;;;;;;;;5073669;28;20443;-70
2023/08/02 10:39:55;;;;;;;56.77;2.30;;;;;;;;;;5073618;28;20797;-69
2023/08/02 10:42:24;;;;;;;56.07;2.60;;;;;;;;;;5073551;28;20826;-69
2023/08/02 10:45:09;;;;;;;56.07;1.93;;;;;;;;;;5073720;28;20451;-70
2023/08/02 10:47:38;;;;;;;56.37;2.00;;;;;;;;;;5073417;28;20447;-70
2023/08/02 10:50:05;;;;;;;56.27;2.00;;;;;;;;;;5073771;28;20984;-70
2023/08/02 10:52:33;;;;;;;56.17;2.10;;;;;;;;;;5073372;28;20487;-69
2023/08/02 10:55:11;;;;;;;56.17;2.00;;;;;;;;;;5073229;28;20455;-69
2023/08/02 10:57:40;;;;;;;56.50;2.53;;;;;;;;;;5073434;28;20865;-70
2023/08/02 11:00:17;;;;;;;56.20;2.20;;;;;;;;;;5073202;28;21004;-69
2023/08/02 11:02:50;;;;;;;56.63;2.87;;;;;;;;;;5073680;28;20474;-67
2023/08/02 11:05:19;;;;;;;56.60;2.40;;;;;;;;;;5073150;28;20931;-69
2023/08/02 11:07:59;;;;;;;56.80;2.67;;;;;;;;;;5072746;28;20447;-69
2023/08/02 11:10:27;;;;;;;56.10;1.93;;;;;;;;;;5072952;28;20796;-69
2023/08/02 11:12:54;;;;;;;56.17;2.10;;;;;;;;;;5072864;28;20514;-67
2023/08/02 11:15:22;;;;;;;56.40;2.10;;;;;;;;;;5073128;28;20455;-69
2023/08/02 11:17:55;;;;;;;56.30;2.10;;;;;;;;;;5073105;28;20451;-68
2023/08/02 11:20:24;;;;;;;56.57;2.20;;;;;;;;;;5072791;28;20861;-69
2023/08/02 11:22:51;;;;;;;56.77;2.47;;;;;;;;;;5072904;28;20463;-69
2023/08/02 11:25:19;;;;;;;56.20;2.10;;;;;;;;;;5072788;28;20447;-69
2023/08/02 11:27:46;;;;;;;56.13;2.00;;;;;;;;;;5072797;28;20451;-69
2023/08/02 11:30:13;;;;;;;57.17;2.70;;;;;;;;;;5072695;28;20447;-69
2023/08/02 11:32:43;;;;;;;56.27;2.00;;;;;;;;;;5072904;28;20519;-68
2023/08/02 11:35:15;;;;;;;56.37;2.30;;;;;;;;;;5072673;28;20443;-69
2023/08/02 11:37:42;;;;;;;56.37;2.50;;;;;;;;;;5072643;28;20473;-69
2023/08/02 11:40:10;;;;;;;56.60;2.30;;;;;;;;;;5072107;28;20439;-69
2023/08/02 11:42:46;;;;;;;57.37;4.17;;;;;;;;;;5072606;28;20460;-68
2023/08/02 11:45:13;;;;;;;56.27;3.03;;;;;;;;;;5072704;28;20446;-68
2023/08/02 11:47:40;;;;;;;56.37;2.10;;;;;;;;;;5072667;28;20451;-69
2023/08/02 11:50:08;;;;;;;56.27;2.20;;;;;;;;;;5072491;28;20455;-68
2023/08/02 11:52:36;;;;;;;56.03;2.10;;;;;;;;;;5073027;28;20491;-69
2023/08/02 11:55:03;;;;;;;56.30;2.03;;;;;;;;;;5072700;28;20459;-68
2023/08/02 11:57:31;;;;;;;56.40;2.43;;;;;;;;;;5072314;28;20447;-69
2023/08/02 11:59:59;;;;;;;56.70;2.67;;;;;;;;;;5072447;28;20446;-69
2023/08/02 12:02:27;;;;;;;56.17;2.33;;;;;;;;;;5071913;28;20471;-69
2023/08/02 12:04:54;;;;;;;56.40;2.20;;;;;;;;;;5071712;28;20443;-69
2023/08/02 12:07:28;;;;;;;56.47;2.33;;;;;;;;;;5071534;28;20451;-69
2023/08/02 12:09:57;;;;;;;56.40;2.27;;;;;;;;;;5072131;28;20815;-69
2023/08/02 12:12:29;;;;;;;56.27;2.13;;;;;;;;;;5071916;28;20491;-68
2023/08/02 12:14:56;;;;;;;56.07;2.20;;;;;;;;;;5071971;28;20447;-69
2023/08/02 12:17:24;;;;;;;56.27;2.10;;;;;;;;;;5072010;28;20864;-69
2023/08/02 12:19:53;;;;;;;56.20;2.07;;;;;;;;;;5071040;28;20442;-69
2023/08/02 12:22:21;;;;;;;56.47;2.07;;;;;;;;;;5071663;28;21001;-69
2023/08/02 12:25:03;;;;;;;56.60;2.73;;;;;;;;;;5072228;28;20447;-69
2023/08/02 12:27:31;;;;;;;56.10;1.90;;;;;;;;;;5072005;28;20439;-69
2023/08/02 12:30:08;;;;;;;56.17;2.00;;;;;;;;;;5072067;28;20439;-69
2023/08/02 12:32:35;;;;;;;56.80;3.17;;;;;;;;;;5071826;28;20858;-69
2023/08/02 12:35:06;;;;;;;56.80;2.60;;;;;;;;;;5071935;28;20447;-69
2023/08/02 12:37:33;;;;;;;56.37;1.97;;;;;;;;;;5071737;28;20439;-69
2023/08/02 12:40:01;;;;;;;56.40;2.23;;;;;;;;;;5071803;28;20443;-68
2023/08/02 12:42:28;;;;;;;56.57;2.13;;;;;;;;;;5071381;28;20459;-70
2023/08/02 12:44:57;;;;;;;56.27;1.80;;;;;;;;;;5071770;28;20473;-70
2023/08/02 12:47:24;;;;;;;56.40;2.40;;;;;;;;;;5071629;28;20526;-69
2023/08/02 12:49:51;;;;;;;56.10;1.80;;;;;;;;;;5071392;28;20540;-69
2023/08/02 12:52:18;;;;;;;56.07;2.00;;;;;;;;;;5071455;28;20867;-69
2023/08/02 12:54:45;;;;;;;55.87;1.93;;;;;;;;;;5071554;28;20455;-69
2023/08/02 12:57:12;;;;;;;57.57;2.53;;;;;;;;;;5071341;28;20820;-69
2023/08/02 12:59:39;;;;;;;56.07;1.90;;;;;;;;;;5071615;28;20466;-69
2023/08/02 13:02:08;;;;;;;56.57;2.30;;;;;;;;;;5071281;28;20525;-69
2023/08/02 13:04:35;;;;;;;56.17;1.90;;;;;;;;;;5071658;28;20444;-69
2023/08/02 13:07:03;;;;;;;55.93;1.90;;;;;;;;;;5071384;28;20966;-69
2023/08/02 13:09:32;;;;;;;56.13;1.83;;;;;;;;;;5071479;28;20505;-69
2023/08/02 13:12:00;;;;;;;56.47;1.87;;;;;;;;;;5071082;28;20481;-69
2023/08/02 13:14:27;;;;;;;56.03;2.03;;;;;;;;;;5071308;28;20444;-69
2023/08/02 13:16:55;;;;;;;56.60;2.40;;;;;;;;;;5071317;28;20443;-68
2023/08/02 13:19:24;;;;;;;56.17;1.77;;;;;;;;;;5071261;28;20451;-69
2023/08/02 13:21:51;;;;;;;55.97;1.80;;;;;;;;;;5070937;28;20817;-69
2023/08/02 13:24:18;;;;;;;56.07;1.80;;;;;;;;;;5071203;28;20489;-68
2023/08/02 13:26:45;;;;;;;56.47;2.07;;;;;;;;;;5071307;28;20447;-69
2023/08/02 13:29:12;;;;;;;56.27;2.10;;;;;;;;;;5071403;28;20440;-68
2023/08/02 13:31:39;;;;;;;56.20;1.70;;;;;;;;;;5073276;28;20439;-69
2023/08/02 13:34:06;;;;;;;55.83;2.17;;;;;;;;;;5074940;28;20483;-69
2023/08/02 13:36:34;;;;;;;56.33;1.87;;;;;;;;;;5075081;28;20961;-69
2023/08/02 13:39:01;;;;;;;55.63;1.90;;;;;;;;;;5074870;28;20445;-69
2023/08/02 13:41:29;;;;;;;55.87;1.63;;;;;;;;;;5074870;28;20546;-69
2023/08/02 13:43:56;;;;;;;56.10;2.07;;;;;;;;;;5074824;28;20464;-69
2023/08/02 13:46:23;;;;;;;56.17;1.70;;;;;;;;;;5074811;28;20961;-69
2023/08/02 13:48:50;;;;;;;56.27;2.17;;;;;;;;;;5074645;28;20469;-69
2023/08/02 13:51:17;;;;;;;55.77;1.70;;;;;;;;;;5074480;28;20538;-69
2023/08/02 13:53:45;;;;;;;56.20;1.90;;;;;;;;;;5074570;28;20487;-69
2023/08/02 13:56:13;;;;;;;56.20;1.80;;;;;;;;;;5074981;28;20759;-69
2023/08/02 13:58:40;;;;;;;56.60;2.00;;;;;;;;;;5074793;28;20454;-69
2023/08/02 14:01:07;;;;;;;55.87;1.83;;;;;;;;;;5074200;28;20928;-69
2023/08/02 14:03:34;;;;;;;56.40;1.93;;;;;;;;;;5074451;28;20465;-69
2023/08/02 14:06:03;;;;;;;55.93;1.60;;;;;;;;;;5074379;28;20443;-69
2023/08/02 14:08:30;;;;;;;55.90;1.80;;;;;;;;;;5074800;28;20482;-69
2023/08/02 14:10:58;;;;;;;56.20;2.20;;;;;;;;;;5074183;28;20815;-69
2023/08/02 14:13:25;;;;;;;56.13;2.03;;;;;;;;;;5074235;28;20490;-68
2023/08/02 14:15:52;;;;;;;55.87;1.80;;;;;;;;;;5074220;28;20439;-70
2023/08/02 14:18:19;;;;;;;55.97;1.63;;;;;;;;;;5074013;28;20449;-68
2023/08/02 14:20:46;;;;;;;56.20;2.00;;;;;;;;;;5074132;28;20439;-69
2023/08/02 14:23:14;;;;;;;55.80;1.60;;;;;;;;;;5074137;28;20486;-68
2023/08/02 14:25:41;;;;;;;56.40;1.90;;;;;;;;;;5074056;28;20447;-70
2023/08/02 14:28:09;;;;;;;57.87;2.00;;;;;;;;;;5074035;28;20450;-69
2023/08/02 14:30:36;;;;;;;55.87;1.80;;;;;;;;;;5073658;28;20519;-70
2023/08/02 14:33:03;;;;;;;56.20;2.20;;;;;;;;;;5073695;28;20924;-70
2023/08/02 14:35:31;;;;;;;56.17;2.30;;;;;;;;;;5074250;28;20443;-70
2023/08/02 14:37:59;;;;;;;56.10;2.00;;;;;;;;;;5074188;28;20443;-69